createdAt,value
2023-04-18T00:03:31.553Z,7.06
2023-04-18T00:05:59.830Z,7.50
2023-04-18T00:08:26.516Z,7.58
2023-04-18T00:10:54.349Z,7.25
2023-04-18T00:13:21.508Z,7.56
2023-04-18T00:15:48.708Z,7.30
2023-04-18T00:18:17.432Z,7.50
2023-04-18T00:20:46.162Z,7.59
2023-04-18T00:23:14.100Z,7.20
2023-04-18T00:25:41.201Z,7.68
2023-04-18T00:28:08.220Z,7.53
2023-04-18T00:30:35.337Z,7.61
2023-04-18T00:33:06.538Z,7.50
2023-04-18T00:35:33.677Z,7.64
2023-04-18T00:38:01.785Z,7.89
2023-04-18T00:40:29.310Z,7.61
2023-04-18T00:42:56.486Z,7.53
2023-04-18T00:45:23.854Z,7.30
2023-04-18T00:47:51.129Z,7.51
2023-04-18T00:50:19.961Z,7.74
2023-04-18T00:52:48.172Z,7.62
2023-04-18T00:55:16.397Z,7.92
2023-04-18T00:57:44.026Z,7.82
2023-04-18T01:00:12.759Z,7.45
2023-04-18T01:02:41.324Z,7.99
2023-04-18T01:05:09.672Z,7.89
2023-04-18T01:07:40.790Z,7.78
2023-04-18T01:10:10.346Z,7.86
2023-04-18T01:12:37.721Z,8.27
2023-04-18T01:15:05.758Z,7.78
2023-04-18T01:17:34.728Z,7.98
2023-04-18T01:20:03.445Z,8.26
2023-04-18T01:22:32.242Z,8.04
2023-04-18T01:24:59.458Z,7.69
2023-04-18T01:27:26.583Z,8.15
2023-04-18T01:29:56.439Z,7.53
2023-04-18T01:32:23.889Z,7.77
2023-04-18T01:34:50.952Z,7.77
2023-04-18T01:37:23.416Z,7.76
2023-04-18T01:39:50.244Z,7.48
2023-04-18T01:42:19.099Z,7.44
2023-04-18T01:44:46.123Z,7.47
2023-04-18T01:47:13.399Z,7.41
2023-04-18T01:49:42.921Z,7.63
2023-04-18T01:52:09.973Z,7.48
2023-04-18T01:54:41.111Z,7.80
2023-04-18T01:57:07.932Z,7.73
2023-04-18T01:59:35.365Z,7.93
2023-04-18T02:02:02.627Z,8.45
2023-04-18T02:04:29.716Z,7.89
2023-04-18T02:06:56.946Z,8.03
2023-04-18T02:09:24.217Z,8.01
2023-04-18T02:11:51.362Z,8.07
2023-04-18T02:14:18.222Z,7.57
2023-04-18T02:16:46.047Z,7.56
2023-04-18T02:19:13.004Z,7.47
2023-04-18T02:21:44.546Z,7.51
2023-04-18T02:24:11.666Z,7.35
2023-04-18T02:26:39.782Z,7.52
2023-04-18T02:29:06.980Z,7.84
2023-04-18T02:31:34.032Z,7.44
2023-04-18T02:34:01.191Z,7.72
2023-04-18T02:36:28.353Z,7.62
2023-04-18T02:38:55.431Z,7.81
2023-04-18T02:41:22.760Z,7.79
2023-04-18T02:43:51.506Z,7.27
2023-04-18T02:46:21.014Z,7.61
2023-04-18T02:48:49.494Z,7.47
2023-04-18T02:51:23.745Z,7.66
2023-04-18T02:53:55.048Z,7.81
2023-04-18T02:56:22.770Z,7.30
2023-04-18T02:59:08.736Z,7.60
2023-04-18T03:01:56.843Z,7.43
2023-04-18T03:04:24.440Z,7.65
2023-04-18T03:07:00.572Z,7.70
2023-04-18T03:09:31.005Z,7.84
2023-04-18T03:12:03.270Z,7.92
2023-04-18T03:14:32.402Z,7.78
2023-04-18T03:17:01.282Z,7.90
2023-04-18T03:19:34.523Z,7.79
2023-04-18T03:22:06.189Z,8.03
2023-04-18T03:24:36.446Z,7.86
2023-04-18T03:27:06.449Z,7.86
2023-04-18T03:29:36.053Z,7.68
2023-04-18T03:32:06.488Z,7.76
2023-04-18T03:34:33.759Z,7.74
2023-04-18T03:37:02.460Z,7.71
2023-04-18T03:39:32.586Z,7.58
2023-04-18T03:42:02.834Z,7.88
2023-04-18T03:44:30.290Z,7.56
2023-04-18T03:46:57.736Z,7.71
2023-04-18T03:49:26.230Z,7.84
2023-04-18T03:51:53.277Z,7.79
2023-04-18T03:54:21.053Z,7.64
2023-04-18T03:56:49.628Z,7.83
2023-04-18T03:59:16.849Z,7.36
2023-04-18T04:01:47.745Z,7.43
2023-04-18T04:04:17.220Z,7.37
2023-04-18T04:06:44.747Z,7.64
2023-04-18T04:09:11.609Z,7.70
2023-04-18T04:11:40.010Z,7.12
2023-04-18T04:14:10.402Z,7.64
2023-04-18T04:16:42.389Z,7.93
2023-04-18T04:19:11.975Z,7.39
2023-04-18T04:21:46.437Z,7.58
2023-04-18T04:24:17.613Z,7.71
2023-04-18T04:26:48.887Z,7.71
2023-04-18T04:29:23.988Z,7.74
2023-04-18T04:31:53.104Z,7.98
2023-04-18T04:34:31.301Z,7.89
2023-04-18T04:37:01.001Z,8.11
2023-04-18T04:39:29.519Z,8.10
2023-04-18T04:42:15.601Z,8.30
2023-04-18T04:44:54.779Z,8.08
2023-04-18T04:47:29.733Z,7.87
2023-04-18T04:49:57.215Z,7.65
2023-04-18T04:52:24.558Z,7.66
2023-04-18T04:54:52.096Z,7.23
2023-04-18T04:57:21.249Z,7.89
2023-04-18T04:59:48.538Z,7.75
2023-04-18T05:02:16.861Z,7.54
2023-04-18T05:04:45.037Z,7.74
2023-04-18T05:07:12.701Z,7.51
2023-04-18T05:09:41.282Z,8.01
2023-04-18T05:12:08.895Z,7.53
2023-04-18T05:14:35.980Z,7.78
2023-04-18T05:17:04.429Z,7.95
2023-04-18T05:19:31.560Z,7.59
2023-04-18T05:21:58.870Z,7.41
2023-04-18T05:24:26.460Z,7.45
2023-04-18T05:26:54.153Z,7.41
2023-04-18T05:29:21.517Z,7.71
2023-04-18T05:31:48.855Z,8.01
2023-04-18T05:34:16.587Z,8.08
2023-04-18T05:36:44.955Z,7.87
2023-04-18T05:39:12.550Z,8.00
2023-04-18T05:41:40.212Z,7.98
2023-04-18T05:44:08.393Z,8.08
2023-04-18T05:46:36.183Z,7.65
2023-04-18T05:49:04.317Z,7.73
2023-04-18T05:51:32.252Z,7.99
2023-04-18T05:54:04.277Z,7.66
2023-04-18T05:56:34.145Z,7.64
2023-04-18T05:59:01.964Z,7.46
2023-04-18T06:01:30.249Z,7.80
2023-04-18T06:03:57.225Z,7.49
2023-04-18T06:06:25.060Z,7.79
2023-04-18T06:08:52.306Z,7.52
2023-04-18T06:11:21.442Z,7.36
2023-04-18T06:13:48.748Z,7.74
2023-04-18T06:16:16.203Z,7.63
2023-04-18T06:18:43.552Z,7.79
2023-04-18T06:21:10.916Z,7.87
2023-04-18T06:23:38.711Z,7.98
2023-04-18T06:26:07.415Z,8.23
2023-04-18T06:28:34.319Z,8.27
2023-04-18T06:31:01.565Z,8.64
2023-04-18T06:33:29.290Z,8.61
2023-04-18T06:38:52.235Z,8.23
2023-04-18T06:41:20.841Z,8.09
2023-04-18T06:44:03.433Z,8.10
2023-04-18T06:46:39.090Z,8.12
2023-04-18T06:49:11.482Z,8.19
2023-04-18T06:54:25.022Z,8.34
2023-04-18T06:57:08.905Z,8.06
2023-04-18T06:59:41.763Z,7.73
2023-04-18T07:02:11.635Z,7.86
2023-04-18T07:04:39.776Z,7.88
2023-04-18T07:07:10.548Z,7.75
2023-04-18T07:09:50.539Z,7.72
2023-04-18T07:12:19.968Z,7.56
2023-04-18T07:14:48.643Z,7.71
2023-04-18T07:17:16.250Z,7.47
2023-04-18T07:19:44.319Z,7.94
2023-04-18T07:22:11.847Z,8.06
2023-04-18T07:24:41.178Z,8.03
2023-04-18T07:27:10.037Z,7.84
2023-04-18T07:29:39.036Z,8.48
2023-04-18T07:32:08.530Z,8.00
2023-04-18T07:34:37.658Z,7.82
2023-04-18T07:37:05.289Z,8.06
2023-04-18T07:39:36.463Z,8.03
2023-04-18T07:42:05.378Z,7.67
2023-04-18T07:44:34.756Z,7.50
2023-04-18T07:47:02.398Z,7.94
2023-04-18T07:49:29.720Z,8.34
2023-04-18T07:51:57.328Z,8.34
2023-04-18T07:54:25.585Z,8.55
2023-04-18T07:56:52.673Z,8.41
2023-04-18T07:59:19.999Z,7.72
2023-04-18T08:01:47.373Z,7.57
2023-04-18T08:04:15.817Z,7.97
2023-04-18T08:06:44.791Z,8.21
2023-04-18T08:09:15.787Z,8.06
2023-04-18T08:11:43.557Z,8.28
2023-04-18T08:14:11.618Z,7.96
2023-04-18T08:16:39.702Z,8.39
2023-04-18T08:19:08.933Z,8.46
2023-04-18T08:21:37.020Z,8.36
2023-04-18T08:24:04.731Z,8.25
2023-04-18T08:26:32.538Z,8.26
2023-04-18T08:29:00.508Z,8.68
2023-04-18T08:31:28.607Z,8.88
2023-04-18T08:33:56.275Z,9.09
2023-04-18T08:36:25.227Z,8.91
2023-04-18T08:38:52.615Z,8.80
2023-04-18T08:41:25.172Z,8.74
2023-04-18T08:43:52.351Z,8.58
2023-04-18T08:46:19.905Z,8.66
2023-04-18T08:48:50.188Z,9.00
2023-04-18T08:51:17.985Z,9.10
2023-04-18T08:53:46.024Z,9.27
2023-04-18T08:56:15.558Z,8.98
2023-04-18T08:58:45.492Z,9.22
2023-04-18T09:01:14.093Z,9.30
2023-04-18T09:03:43.431Z,9.17
2023-04-18T09:06:14.135Z,9.11
2023-04-18T09:08:44.079Z,8.95
2023-04-18T09:11:23.662Z,9.48
2023-04-18T09:13:52.137Z,9.46
2023-04-18T09:16:20.885Z,9.26
2023-04-18T09:19:14.022Z,9.77
2023-04-18T09:21:47.183Z,9.42
2023-04-18T09:24:27.322Z,9.67
2023-04-18T09:27:01.558Z,9.59
2023-04-18T09:29:51.948Z,9.44
2023-04-18T09:32:27.573Z,9.35
2023-04-18T09:35:00.204Z,9.54
2023-04-18T09:37:29.757Z,9.21
2023-04-18T09:39:59.602Z,9.45
2023-04-18T09:42:28.786Z,9.48
2023-04-18T09:45:06.576Z,9.28
2023-04-18T09:47:35.571Z,9.70
2023-04-18T09:50:08.196Z,10.09
2023-04-18T09:52:38.101Z,10.29
2023-04-18T09:55:08.448Z,10.42
2023-04-18T09:57:39.107Z,10.27
2023-04-18T10:00:12.469Z,10.41
2023-04-18T10:02:56.688Z,10.21
2023-04-18T10:05:28.362Z,10.54
2023-04-18T10:07:59.410Z,10.50
2023-04-18T10:10:40.595Z,10.10
2023-04-18T10:13:11.918Z,10.40
2023-04-18T10:15:41.742Z,10.42
2023-04-18T10:18:15.443Z,10.55
2023-04-18T10:20:44.858Z,10.72
2023-04-18T10:23:31.143Z,10.48
2023-04-18T10:25:59.832Z,10.32
2023-04-18T10:28:28.644Z,9.80
2023-04-18T10:31:05.834Z,9.64
2023-04-18T10:33:41.999Z,9.93
2023-04-18T10:36:12.909Z,10.21
2023-04-18T10:38:47.358Z,10.20
2023-04-18T10:41:25.476Z,10.63
2023-04-18T10:44:11.375Z,10.85
2023-04-18T10:46:52.221Z,10.34
2023-04-18T10:49:27.365Z,10.38
2023-04-18T10:52:00.693Z,10.53
2023-04-18T10:54:43.415Z,10.64
2023-04-18T10:57:12.269Z,10.88
2023-04-18T10:59:45.139Z,10.31
2023-04-18T11:02:30.589Z,10.61
2023-04-18T11:05:06.803Z,11.04
2023-04-18T11:07:41.445Z,10.58
2023-04-18T11:10:10.928Z,10.15
2023-04-18T11:12:41.366Z,11.02
2023-04-18T11:15:23.588Z,10.40
2023-04-18T11:18:03.774Z,10.59
2023-04-18T11:20:50.185Z,10.43
2023-04-18T11:23:25.858Z,10.72
2023-04-18T11:25:56.742Z,11.35
2023-04-18T11:28:27.934Z,10.96
2023-04-18T11:30:59.485Z,11.38
2023-04-18T11:33:29.624Z,11.33
2023-04-18T11:36:02.204Z,11.67
2023-04-18T11:38:35.097Z,11.01
2023-04-18T11:41:06.247Z,10.91
2023-04-18T11:43:34.437Z,11.53
2023-04-18T11:46:02.293Z,11.11
2023-04-18T11:48:42.263Z,10.68
2023-04-18T11:51:34.669Z,11.72
2023-04-18T11:54:06.713Z,11.22
2023-04-18T11:56:36.640Z,11.37
2023-04-18T11:59:12.889Z,12.00
2023-04-18T12:01:58.913Z,11.82
2023-04-18T12:04:27.899Z,11.03
2023-04-18T12:06:55.737Z,11.16
2023-04-18T12:09:30.622Z,11.49
2023-04-18T12:12:03.393Z,11.08
2023-04-18T12:14:31.739Z,11.14
2023-04-18T12:16:59.709Z,10.97
2023-04-18T12:19:32.964Z,11.22
2023-04-18T12:22:05.584Z,11.08
2023-04-18T12:24:33.364Z,11.33
2023-04-18T12:27:01.906Z,11.83
2023-04-18T12:29:30.268Z,10.99
2023-04-18T12:32:00.712Z,11.52
2023-04-18T12:34:29.401Z,11.64
2023-04-18T12:36:56.693Z,11.42
2023-04-18T12:39:26.373Z,10.91
2023-04-18T12:41:53.971Z,10.98
2023-04-18T12:44:21.490Z,11.64
2023-04-18T12:46:48.898Z,11.77
2023-04-18T12:49:16.717Z,11.63
2023-04-18T12:51:43.934Z,11.40
2023-04-18T12:54:11.207Z,10.47
2023-04-18T12:56:38.882Z,11.78
2023-04-18T12:59:06.717Z,11.63
2023-04-18T13:01:37.143Z,12.10
2023-04-18T13:04:12.698Z,12.28
2023-04-18T13:06:40.750Z,12.35
2023-04-18T13:09:09.724Z,12.63
2023-04-18T13:11:37.909Z,12.17
2023-04-18T13:14:05.722Z,12.32
2023-04-18T13:16:32.722Z,12.37
2023-04-18T13:19:02.843Z,11.98
2023-04-18T13:21:56.041Z,11.34
2023-04-18T13:24:28.352Z,11.99
2023-04-18T13:26:56.564Z,11.89
2023-04-18T13:29:24.015Z,11.34
2023-04-18T13:31:54.183Z,11.66
2023-04-18T13:34:22.493Z,11.71
2023-04-18T13:36:49.740Z,11.59
2023-04-18T13:39:20.592Z,11.63
2023-04-18T13:41:47.837Z,11.98
2023-04-18T13:44:15.377Z,11.79
2023-04-18T13:47:00.122Z,11.98
2023-04-18T13:49:31.807Z,12.30
2023-04-18T13:51:59.240Z,12.38
2023-04-18T13:54:28.347Z,12.09
2023-04-18T13:56:57.922Z,12.05
2023-04-18T13:59:30.116Z,11.88
2023-04-18T14:01:57.917Z,11.83
2023-04-18T14:04:29.558Z,12.03
2023-04-18T14:06:56.704Z,12.28
2023-04-18T14:09:25.089Z,11.86
2023-04-18T14:11:53.559Z,11.85
2023-04-18T14:14:20.938Z,12.29
2023-04-18T14:16:48.292Z,12.55
2023-04-18T14:19:16.437Z,12.78
2023-04-18T14:21:44.365Z,12.89
2023-04-18T14:24:12.246Z,12.74
2023-04-18T14:26:39.507Z,11.73
2023-04-18T14:29:07.260Z,11.43
2023-04-18T14:31:34.354Z,11.14
2023-04-18T14:34:11.024Z,11.40
2023-04-18T14:36:38.324Z,11.66
2023-04-18T14:39:06.189Z,11.89
2023-04-18T14:41:33.243Z,11.59
2023-04-18T14:44:01.137Z,11.62
2023-04-18T14:46:29.358Z,12.46
2023-04-18T14:48:57.770Z,12.33
2023-04-18T14:51:25.506Z,12.21
2023-04-18T14:53:52.865Z,12.63
2023-04-18T14:56:21.849Z,12.88
2023-04-18T14:58:48.904Z,12.93
2023-04-18T15:01:17.717Z,13.47
2023-04-18T15:03:45.700Z,13.13
2023-04-18T15:06:13.364Z,13.28
2023-04-18T15:08:44.491Z,12.00
2023-04-18T15:11:15.487Z,11.59
2023-04-18T15:13:51.782Z,11.86
2023-04-18T15:16:19.141Z,11.52
2023-04-18T15:18:46.374Z,12.07
2023-04-18T15:21:13.425Z,12.24
2023-04-18T15:23:41.248Z,12.49
2023-04-18T15:26:08.934Z,12.04
2023-04-18T15:28:36.772Z,12.30
2023-04-18T15:31:06.939Z,12.28
2023-04-18T15:33:34.328Z,12.58
2023-04-18T15:36:03.161Z,13.03
2023-04-18T15:38:32.884Z,13.08
2023-04-18T15:41:00.849Z,13.31
2023-04-18T15:43:28.188Z,12.63
2023-04-18T15:45:56.047Z,12.72
2023-04-18T15:48:27.652Z,12.57
2023-04-18T15:50:55.431Z,12.76
2023-04-18T15:53:22.718Z,13.31
2023-04-18T15:55:51.027Z,12.95
2023-04-18T15:58:22.260Z,12.25
2023-04-18T16:00:53.433Z,12.11
2023-04-18T16:03:22.052Z,12.67
2023-04-18T16:05:50.819Z,12.72
2023-04-18T16:08:18.695Z,12.13
2023-04-18T16:10:52.061Z,12.08
2023-04-18T16:13:19.589Z,11.82
2023-04-18T16:15:48.351Z,11.73
2023-04-18T16:18:15.670Z,12.16
2023-04-18T16:20:45.984Z,11.98
2023-04-18T16:23:14.554Z,12.00
2023-04-18T16:25:42.918Z,11.87
2023-04-18T16:28:10.243Z,11.23
2023-04-18T16:30:37.923Z,11.65
2023-04-18T16:33:06.695Z,11.46
2023-04-18T16:35:34.045Z,11.41
2023-04-18T16:38:00.999Z,11.11
2023-04-18T16:40:30.877Z,11.66
2023-04-18T16:42:58.412Z,11.33
2023-04-18T16:45:26.164Z,11.95
2023-04-18T16:47:53.935Z,11.29
2023-04-18T16:50:23.118Z,11.89
2023-04-18T16:52:50.374Z,11.63
2023-04-18T16:55:17.794Z,11.50
2023-04-18T16:57:44.823Z,11.30
2023-04-18T17:00:13.909Z,10.79
2023-04-18T17:02:43.569Z,10.56
2023-04-18T17:05:11.506Z,10.54
2023-04-18T17:07:38.742Z,10.49
2023-04-18T17:10:07.794Z,11.10
2023-04-18T17:12:37.605Z,10.87
2023-04-18T17:15:07.972Z,10.56
2023-04-18T17:17:35.701Z,10.28
2023-04-18T17:20:06.301Z,10.31
2023-04-18T17:22:33.455Z,10.35
2023-04-18T17:25:02.247Z,10.63
2023-04-18T17:27:29.559Z,10.24
2023-04-18T17:29:56.909Z,10.36
2023-04-18T17:32:24.472Z,10.67
2023-04-18T17:34:52.286Z,10.07
2023-04-18T17:37:22.680Z,9.74
2023-04-18T17:39:51.218Z,10.18
2023-04-18T17:42:19.924Z,9.72
2023-04-18T17:44:50.733Z,9.33
2023-04-18T17:47:32.136Z,9.53
2023-04-18T17:50:01.896Z,9.60
2023-04-18T17:52:32.806Z,9.36
2023-04-18T17:55:02.976Z,9.24
2023-04-18T17:57:30.951Z,9.48
2023-04-18T17:59:57.940Z,9.82
2023-04-18T18:02:25.335Z,9.65
2023-04-18T18:04:52.978Z,9.18
2023-04-18T18:07:21.263Z,9.46
2023-04-18T18:09:48.623Z,9.86
2023-04-18T18:12:15.819Z,9.72
2023-04-18T18:14:43.656Z,9.55
2023-04-18T18:17:11.462Z,9.41
2023-04-18T18:19:38.610Z,9.57
2023-04-18T18:22:05.894Z,9.82
2023-04-18T18:24:33.103Z,9.36
2023-04-18T18:27:01.650Z,9.24
2023-04-18T18:29:29.902Z,9.01
2023-04-18T18:31:57.412Z,9.20
2023-04-18T18:34:24.827Z,9.40
2023-04-18T18:36:54.276Z,9.29
2023-04-18T18:39:21.606Z,9.18
2023-04-18T18:41:49.071Z,9.31
2023-04-18T18:44:16.861Z,9.34
2023-04-18T18:46:44.702Z,9.46
2023-04-18T18:49:12.740Z,9.23
2023-04-18T18:51:42.853Z,9.77
2023-04-18T18:54:11.770Z,9.69
2023-04-18T18:56:40.205Z,9.47
2023-04-18T18:59:07.125Z,9.25
2023-04-18T19:01:34.987Z,9.23
2023-04-18T19:04:03.262Z,9.16
2023-04-18T19:06:33.238Z,9.32
2023-04-18T19:09:00.954Z,9.11
2023-04-18T19:11:30.070Z,9.44
2023-04-18T19:14:01.526Z,9.69
2023-04-18T19:16:28.494Z,9.74
2023-04-18T19:18:55.655Z,9.59
2023-04-18T19:21:22.721Z,9.50
2023-04-18T19:23:52.964Z,9.34
2023-04-18T19:26:22.500Z,9.38
2023-04-18T19:28:49.856Z,9.73
2023-04-18T19:31:19.742Z,9.39
2023-04-18T19:33:47.029Z,9.35
2023-04-18T19:36:14.178Z,9.63
2023-04-18T19:38:46.794Z,9.73
2023-04-18T19:41:14.537Z,9.07
2023-04-18T19:43:42.817Z,9.25
2023-04-18T19:46:10.214Z,9.38
2023-04-18T19:48:37.912Z,9.36
2023-04-18T19:51:05.331Z,8.52
2023-04-18T19:53:32.904Z,9.22
2023-04-18T19:55:59.957Z,9.56
2023-04-18T19:58:38.829Z,9.63
2023-04-18T20:01:06.621Z,9.30
2023-04-18T20:03:34.402Z,9.30
2023-04-18T20:06:02.072Z,9.73
2023-04-18T20:08:29.512Z,9.20
2023-04-18T20:10:58.243Z,9.41
2023-04-18T20:13:25.570Z,9.47
2023-04-18T20:15:53.460Z,9.43
2023-04-18T20:18:21.674Z,9.61
2023-04-18T20:20:49.035Z,9.52
2023-04-18T20:23:16.466Z,9.38
2023-04-18T20:25:43.584Z,9.29
2023-04-18T20:28:11.467Z,9.10
2023-04-18T20:30:38.529Z,9.14
2023-04-18T20:33:05.949Z,9.17
2023-04-18T20:35:33.043Z,9.06
2023-04-18T20:38:00.555Z,9.19
2023-04-18T20:40:28.328Z,9.22
2023-04-18T20:42:59.153Z,9.00
2023-04-18T20:45:27.824Z,9.11
2023-04-18T20:47:54.702Z,8.94
2023-04-18T20:50:21.781Z,8.78
2023-04-18T20:52:48.960Z,9.37
2023-04-18T20:55:16.849Z,9.20
2023-04-18T20:57:44.676Z,9.22
2023-04-18T21:00:14.224Z,9.44
2023-04-18T21:02:41.752Z,9.42
2023-04-18T21:05:09.280Z,9.19
2023-04-18T21:07:36.628Z,9.49
2023-04-18T21:10:06.732Z,9.55
2023-04-18T21:12:34.032Z,9.38
2023-04-18T21:15:01.181Z,9.55
2023-04-18T21:17:28.209Z,9.44
2023-04-18T21:19:56.061Z,9.49
2023-04-18T21:22:27.781Z,9.26
2023-04-18T21:24:55.054Z,9.23
2023-04-18T21:27:21.977Z,9.37
2023-04-18T21:29:49.372Z,9.42
2023-04-18T21:32:16.941Z,9.40
2023-04-18T21:34:43.846Z,9.43
2023-04-18T21:37:11.014Z,9.47
2023-04-18T21:39:38.533Z,9.36
2023-04-18T21:42:05.833Z,9.27
2023-04-18T21:44:33.811Z,9.03
2023-04-18T21:47:00.820Z,9.04
2023-04-18T21:49:27.633Z,8.95
2023-04-18T21:51:55.503Z,8.89
2023-04-18T21:54:23.109Z,9.12
2023-04-18T21:56:50.681Z,9.18
2023-04-18T21:59:17.899Z,9.14
2023-04-18T22:01:46.004Z,9.14
2023-04-18T22:04:16.509Z,9.18
2023-04-18T22:06:43.909Z,9.06
2023-04-18T22:09:12.101Z,9.02
2023-04-18T22:11:39.022Z,9.03
2023-04-18T22:14:06.167Z,9.16
2023-04-18T22:16:33.628Z,9.29
2023-04-18T22:19:01.607Z,9.47
2023-04-18T22:21:28.817Z,9.49
2023-04-18T22:23:55.926Z,9.58
2023-04-18T22:26:25.543Z,9.66
2023-04-18T22:28:52.967Z,9.59
2023-04-18T22:31:19.808Z,9.36
2023-04-18T22:33:47.725Z,9.18
2023-04-18T22:36:14.548Z,9.31
2023-04-18T22:38:41.911Z,9.65
2023-04-18T22:41:08.893Z,9.63
2023-04-18T22:43:36.506Z,9.77
2023-04-18T22:46:04.052Z,9.58
2023-04-18T22:48:31.323Z,9.61
2023-04-18T22:50:58.186Z,9.27
2023-04-18T22:53:25.221Z,9.05
2023-04-18T22:55:52.423Z,9.43
2023-04-18T22:58:19.318Z,9.44
2023-04-18T23:00:46.427Z,9.72
2023-04-18T23:03:13.338Z,9.45
2023-04-18T23:05:40.803Z,9.36
2023-04-18T23:08:07.800Z,9.44
2023-04-18T23:10:34.861Z,9.51
2023-04-18T23:13:01.988Z,9.26
2023-04-18T23:15:28.939Z,9.42
2023-04-18T23:17:55.718Z,9.31
2023-04-18T23:20:24.009Z,9.25
2023-04-18T23:22:51.886Z,9.15
2023-04-18T23:25:19.995Z,9.28
2023-04-18T23:27:47.461Z,8.81
2023-04-18T23:30:14.544Z,8.78
2023-04-18T23:32:41.395Z,8.54
2023-04-18T23:35:09.189Z,8.76
2023-04-18T23:37:36.191Z,9.13
2023-04-18T23:40:06.948Z,9.05
2023-04-18T23:42:37.236Z,9.29
2023-04-18T23:45:06.286Z,8.81
2023-04-18T23:47:33.174Z,9.24
2023-04-18T23:50:01.182Z,8.75
2023-04-18T23:52:28.762Z,8.80
2023-04-18T23:54:58.722Z,8.87
2023-04-18T23:57:25.751Z,9.12
2023-04-18T23:59:52.891Z,9.10
